Time;durP1;ratioP1;P1;durP2;ratioP2;P2;SDS_P1;SDS_P2;PMS_P1;PMS_P2;Temp;Humidity;BMP_temperature;BMP_pressure;BME280_temperature;BME280_humidity;BME280_pressure;Samples;Min_cycle;Max_cycle;Signal;HPM_P1;HPM_P2
2022/10/30 00:01:37;;;;;;;1999.90;999.90;;;17.10;99.90;;;;;;6741945;88;20189;-77
2022/10/30 00:11:38;;;;;;;1999.90;999.90;;;17.20;99.90;;;;;;6736463;88;20188;-77
2022/10/30 00:21:39;;;;;;;1999.90;999.90;;;17.20;99.90;;;;;;6731797;88;20265;-79
2022/10/30 00:31:39;;;;;;;1999.90;999.90;;;17.20;99.90;;;;;;6733894;88;20195;-79
2022/10/30 00:41:40;;;;;;;1999.90;999.90;;;17.40;99.90;;;;;;6730449;88;20192;-79
2022/10/30 00:51:48;;;;;;;1999.90;999.90;;;17.60;99.90;;;;;;6737550;88;20196;-79
2022/10/30 01:01:49;;;;;;;1999.90;999.90;;;17.70;99.90;;;;;;6737255;88;20314;-79
2022/10/30 01:11:50;;;;;;;1999.90;999.90;;;17.70;99.90;;;;;;6733759;88;20184;-79
2022/10/30 01:22:26;;;;;;;1999.90;999.90;;;17.60;99.90;;;;;;6743419;88;20698;-78
2022/10/30 01:32:56;;;;;;;1999.90;999.90;;;17.50;99.90;;;;;;6739508;88;20229;-78
2022/10/30 01:42:57;;;;;;;1999.90;999.90;;;17.40;99.90;;;;;;6739247;88;20201;-78
2022/10/30 01:53:39;;;;;;;1999.90;999.90;;;17.40;99.90;;;;;;6746945;76;20982;-78
2022/10/30 02:03:39;;;;;;;1999.90;999.90;;;17.20;99.90;;;;;;6762345;87;20317;-78
2022/10/30 02:13:40;;;;;;;1999.90;999.90;;;17.10;99.90;;;;;;6762898;87;20353;-78
2022/10/30 02:23:41;;;;;;;1999.90;999.90;;;16.90;99.90;;;;;;6762832;87;20879;-79
2022/10/30 02:33:45;;;;;;;1999.90;999.90;;;16.70;99.90;;;;;;6764850;88;20263;-78
2022/10/30 02:43:45;;;;;;;1999.90;999.90;;;16.50;99.90;;;;;;6764657;88;20243;-79
2022/10/30 02:53:46;;;;;;;1999.90;999.90;;;16.30;99.90;;;;;;6760450;87;20328;-79
2022/10/30 03:03:46;;;;;;;1999.90;999.90;;;16.30;99.90;;;;;;6766981;88;20340;-79
2022/10/30 03:13:47;;;;;;;1999.90;999.90;;;16.30;99.90;;;;;;6759175;88;20265;-79
2022/10/30 03:23:51;;;;;;;1999.90;999.90;;;16.30;99.90;;;;;;6742073;88;20206;-78
2022/10/30 03:33:51;;;;;;;1999.90;999.90;;;16.20;99.90;;;;;;6747431;88;20303;-79
2022/10/30 03:43:52;;;;;;;1999.90;999.90;;;16.00;99.90;;;;;;6746405;88;20208;-79
2022/10/30 03:53:52;;;;;;;1999.90;999.90;;;16.00;99.90;;;;;;6746138;88;20188;-78
2022/10/30 04:03:53;;;;;;;1999.90;999.90;;;16.00;99.90;;;;;;6741702;88;20238;-79
2022/10/30 04:13:53;;;;;;;1999.90;999.90;;;15.70;99.90;;;;;;6745415;88;20188;-78
2022/10/30 04:23:55;;;;;;;1999.90;999.90;;;15.70;99.90;;;;;;6745366;88;20207;-79
2022/10/30 04:33:56;;;;;;;1999.90;999.90;;;15.60;99.90;;;;;;6744244;88;20245;-79
2022/10/30 04:43:56;;;;;;;1999.90;999.90;;;15.60;99.90;;;;;;6745922;88;20205;-79
2022/10/30 04:53:57;;;;;;;1999.90;999.90;;;15.40;99.90;;;;;;6743326;88;20305;-79
2022/10/30 05:03:58;;;;;;;1999.90;999.90;;;15.10;99.90;;;;;;6748391;88;20196;-78
2022/10/30 05:13:58;;;;;;;1999.90;999.90;;;14.90;99.90;;;;;;6749093;88;20211;-78
2022/10/30 05:23:59;;;;;;;1999.90;999.90;;;14.60;99.90;;;;;;6747397;88;20192;-79
2022/10/30 05:34:00;;;;;;;1999.90;999.90;;;14.30;99.90;;;;;;6748120;88;20184;-79
2022/10/30 05:44:00;;;;;;;1999.90;999.90;;;14.10;99.90;;;;;;6746865;88;20211;-79
2022/10/30 05:54:01;;;;;;;1999.90;999.90;;;14.10;99.90;;;;;;6746437;88;20298;-78
2022/10/30 06:04:01;;;;;;;1999.90;999.90;;;14.20;99.90;;;;;;6755377;88;20235;-78
2022/10/30 06:14:02;;;;;;;1999.90;999.90;;;14.20;99.90;;;;;;6746074;88;20608;-78
2022/10/30 06:24:03;;;;;;;1999.90;999.90;;;13.70;99.90;;;;;;6747705;88;20341;-78
2022/10/30 06:34:04;;;;;;;1999.90;999.90;;;13.50;99.90;;;;;;6765696;88;20289;-78
2022/10/30 06:44:04;;;;;;;1999.90;999.90;;;13.40;99.90;;;;;;6769780;88;20227;-79
2022/10/30 06:54:05;;;;;;;1999.90;999.90;;;13.50;99.90;;;;;;6761135;88;20685;-79
2022/10/30 07:04:05;;;;;;;1999.90;999.90;;;13.60;99.90;;;;;;6753881;88;20271;-80
2022/10/30 07:14:06;;;;;;;1999.90;999.90;;;13.80;99.90;;;;;;6759454;88;20287;-79
2022/10/30 07:24:07;;;;;;;1999.90;999.90;;;13.80;99.90;;;;;;6757767;88;20210;-79
2022/10/30 07:34:07;;;;;;;1999.90;999.90;;;13.90;99.90;;;;;;6752565;87;20231;-79
2022/10/30 07:44:08;;;;;;;1999.90;999.90;;;14.10;99.90;;;;;;6757030;88;20189;-78
2022/10/30 07:54:08;;;;;;;1999.90;999.90;;;14.70;99.90;;;;;;6770774;76;20219;-78
2022/10/30 08:04:10;;;;;;;1999.90;999.90;;;15.60;99.90;;;;;;6743357;87;20233;-78
2022/10/30 08:14:10;;;;;;;1999.90;999.90;;;16.70;99.90;;;;;;6757425;88;20252;-77
2022/10/30 08:24:11;;;;;;;1999.90;999.90;;;17.10;99.90;;;;;;6747273;87;20184;-79
2022/10/30 08:34:11;;;;;;;1999.90;999.90;;;17.40;99.90;;;;;;6750083;88;20177;-79
2022/10/30 08:44:12;;;;;;;1999.90;999.90;;;17.40;99.90;;;;;;6750287;87;20193;-79
2022/10/30 08:54:12;;;;;;;1999.90;999.90;;;17.70;99.90;;;;;;6748981;88;20183;-77
2022/10/30 09:04:13;;;;;;;1999.90;999.90;;;18.10;99.90;;;;;;6750762;87;20194;-78
2022/10/30 09:14:13;;;;;;;1999.90;999.90;;;18.50;99.90;;;;;;6758510;87;20187;-79
2022/10/30 09:24:14;;;;;;;1999.90;999.90;;;19.00;99.90;;;;;;6751961;87;20199;-77
2022/10/30 09:34:14;;;;;;;1999.90;999.90;;;19.30;99.90;;;;;;6759590;88;20228;-77
2022/10/30 09:44:28;;;;;;;1999.90;999.90;;;19.50;99.90;;;;;;6751168;88;20202;-77
2022/10/30 09:54:49;;;;;;;1999.90;999.90;;;19.80;99.90;;;;;;6755052;88;20497;-77
2022/10/30 10:04:55;;;;;;;1999.90;999.90;;;20.20;99.90;;;;;;6750187;88;20220;-78
2022/10/30 10:14:56;;;;;;;1999.90;999.90;;;20.70;99.90;;;;;;6746931;87;20331;-78
2022/10/30 10:24:57;;;;;;;1999.90;999.90;;;21.40;99.90;;;;;;6741387;87;20188;-76
2022/10/30 10:35:28;;;;;;;1999.90;999.90;;;21.80;99.90;;;;;;6745571;87;20201;-77
2022/10/30 10:45:54;;;;;;;1999.90;999.90;;;21.60;99.90;;;;;;6741155;87;20743;-77
2022/10/30 10:55:59;;;;;;;1999.90;999.90;;;22.30;99.90;;;;;;6766269;87;20680;-80
2022/10/30 11:06:16;;;;;;;1999.90;999.90;;;22.90;99.90;;;;;;6760479;87;20267;-78
2022/10/30 11:16:28;;;;;;;1999.90;999.90;;;23.90;99.90;;;;;;6766435;88;20210;-80
2022/10/30 11:26:32;;;;;;;1999.90;999.90;;;23.90;99.90;;;;;;6767311;87;20224;-79
2022/10/30 11:36:35;;;;;;;1999.90;999.90;;;23.90;99.90;;;;;;6743275;88;20184;-79
2022/10/30 11:46:36;;;;;;;1999.90;999.90;;;23.80;99.90;;;;;;6749395;87;20231;-78
2022/10/30 11:56:45;;;;;;;1999.90;999.90;;;23.60;99.90;;;;;;6750901;87;20208;-78
2022/10/30 12:06:45;;;;;;;1999.90;999.90;;;23.40;99.90;;;;;;6771898;87;20203;-79
2022/10/30 12:16:51;;;;;;;1999.90;999.90;;;23.50;99.90;;;;;;6742498;87;20716;-81
2022/10/30 12:26:54;;;;;;;1999.90;999.90;;;24.20;99.90;;;;;;6756296;87;20195;-79
2022/10/30 12:37:17;;;;;;;1999.90;999.90;;;23.90;99.90;;;;;;6745774;88;20711;-78
2022/10/30 12:47:41;;;;;;;1999.90;999.90;;;23.60;99.90;;;;;;6747547;87;20199;-75
2022/10/30 12:57:51;;;;;;;1999.90;999.90;;;23.40;99.90;;;;;;6745843;87;20177;-75
2022/10/30 13:08:14;;;;;;;1999.90;999.90;;;22.40;99.90;;;;;;6742539;88;20669;-75
2022/10/30 13:18:18;;;;;;;1999.90;999.90;;;22.10;99.90;;;;;;6762450;87;20183;-76
2022/10/30 13:28:32;;;;;;;1999.90;999.90;;;22.00;99.90;;;;;;6753282;87;20212;-78
2022/10/30 13:38:41;;;;;;;1999.90;999.90;;;21.70;99.90;;;;;;6759695;87;20191;-77
2022/10/30 13:59:03;;;;;;;1999.90;999.90;;;21.50;99.90;;;;;;6755603;88;20232;-81
2022/10/30 14:09:31;;;;;;;1999.90;999.90;;;21.40;99.90;;;;;;6729788;88;20236;-80
2022/10/30 14:19:32;;;;;;;1999.90;999.90;;;21.30;99.90;;;;;;6724356;88;20192;-79
2022/10/30 14:29:33;;;;;;;1999.90;999.90;;;21.20;99.90;;;;;;6720287;88;20192;-78
2022/10/30 14:39:44;;;;;;;1999.90;999.90;;;21.10;99.90;;;;;;6724776;88;20214;-79
2022/10/30 14:50:26;;;;;;;1999.90;999.90;;;20.80;99.90;;;;;;6723776;88;20258;-79
2022/10/30 15:00:34;;;;;;;1999.90;999.90;;;20.70;99.90;;;;;;6725943;88;20209;-82
2022/10/30 15:10:38;;;;;;;1999.90;999.90;;;20.50;99.90;;;;;;6741721;88;20212;-80
2022/10/30 15:20:39;;;;;;;1999.90;999.90;;;20.30;99.90;;;;;;6723524;88;20186;-80
2022/10/30 15:30:58;;;;;;;1999.90;999.90;;;20.20;99.90;;;;;;6708156;88;20197;-79
2022/10/30 15:41:01;;;;;;;1999.90;999.90;;;20.40;99.90;;;;;;6719594;88;20834;-80
2022/10/30 15:51:15;;;;;;;1999.90;999.90;;;20.20;99.90;;;;;;6745559;88;20197;-80
2022/10/30 16:01:37;;;;;;;1999.90;999.90;;;19.80;99.90;;;;;;6730695;88;20272;-78
2022/10/30 16:11:38;;;;;;;1999.90;999.90;;;19.70;99.90;;;;;;6716729;88;20225;-80
2022/10/30 16:21:38;;;;;;;1999.90;999.90;;;19.70;99.90;;;;;;6728509;88;20280;-78
2022/10/30 16:31:42;;;;;;;1999.90;999.90;;;19.40;99.90;;;;;;6718972;88;20331;-79
2022/10/30 16:41:43;;;;;;;1999.90;999.90;;;19.20;99.90;;;;;;6723648;88;20677;-77
2022/10/30 16:51:45;;;;;;;1999.90;999.90;;;18.70;99.90;;;;;;6728707;88;20692;-77
2022/10/30 17:01:52;;;;;;;1999.90;999.90;;;18.60;99.90;;;;;;6719807;88;20271;-79
2022/10/30 17:12:21;;;;;;;1999.90;999.90;;;18.30;99.90;;;;;;6724639;88;20214;-78
2022/10/30 17:22:23;;;;;;;1999.90;999.90;;;18.10;99.90;;;;;;6728463;88;20283;-77
2022/10/30 17:32:39;;;;;;;1999.90;999.90;;;18.10;99.90;;;;;;6702487;88;20205;-79
2022/10/30 17:42:40;;;;;;;1999.90;999.90;;;17.90;99.90;;;;;;6720648;88;20683;-79
2022/10/30 17:52:41;;;;;;;1999.90;999.90;;;17.60;99.90;;;;;;6726209;88;20203;-79
2022/10/30 18:02:41;;;;;;;1999.90;999.90;;;17.20;99.90;;;;;;6723362;88;20214;-78
2022/10/30 18:12:43;;;;;;;1999.90;999.90;;;17.00;99.90;;;;;;6735826;88;20288;-80
2022/10/30 18:22:44;;;;;;;1999.90;999.90;;;16.70;99.90;;;;;;6747269;88;20173;-79
2022/10/30 18:32:45;;;;;;;1999.90;999.90;;;16.70;99.90;;;;;;6752920;88;20308;-82
2022/10/30 18:42:46;;;;;;;1999.90;999.90;;;16.50;99.90;;;;;;6722869;88;20229;-79
2022/10/30 18:52:47;;;;;;;1999.90;999.90;;;16.50;99.90;;;;;;6753707;88;20202;-80
2022/10/30 19:02:47;;;;;;;1999.90;999.90;;;16.30;99.90;;;;;;6734435;88;20171;-78
2022/10/30 19:12:48;;;;;;;1999.90;999.90;;;16.00;99.90;;;;;;6744259;88;20302;-78
2022/10/30 19:22:48;;;;;;;1999.90;999.90;;;16.00;99.90;;;;;;6751889;88;20189;-78
2022/10/30 19:32:49;;;;;;;1999.90;999.90;;;15.70;99.90;;;;;;6746135;88;20178;-78
2022/10/30 19:42:51;;;;;;;1999.90;999.90;;;15.60;99.90;;;;;;6736085;88;20227;-81
2022/10/30 19:53:12;;;;;;;1999.90;999.90;;;15.50;99.90;;;;;;6740812;77;20256;-82
2022/10/30 20:03:14;;;;;;;1999.90;999.90;;;15.30;99.90;;;;;;6722116;88;20175;-83
2022/10/30 20:13:15;;;;;;;1999.90;999.90;;;15.30;99.90;;;;;;6760689;88;20233;-84
2022/10/30 20:23:16;;;;;;;1999.90;999.90;;;15.10;99.90;;;;;;6761773;88;20180;-83
2022/10/30 20:33:18;;;;;;;1999.90;999.90;;;14.90;99.90;;;;;;6739905;88;21293;-84
2022/10/30 20:43:21;;;;;;;1999.90;999.90;;;14.70;99.90;;;;;;6739681;88;20223;-84
2022/10/30 20:53:22;;;;;;;1999.90;999.90;;;14.60;99.90;;;;;;6739184;88;20227;-83
2022/10/30 21:03:26;;;;;;;1999.90;999.90;;;14.50;99.90;;;;;;6747149;88;20641;-82
2022/10/30 21:13:27;;;;;;;1999.90;999.90;;;14.50;99.90;;;;;;6739773;88;20196;-82
2022/10/30 21:23:27;;;;;;;1999.90;999.90;;;14.30;99.90;;;;;;6738560;88;20623;-83
2022/10/30 21:33:30;;;;;;;1999.90;999.90;;;14.30;99.90;;;;;;6741214;88;20189;-84
2022/10/30 21:43:30;;;;;;;1999.90;999.90;;;14.20;99.90;;;;;;6738217;88;20318;-82
2022/10/30 21:53:31;;;;;;;1999.90;999.90;;;14.20;99.90;;;;;;6731677;88;20201;-84
2022/10/30 22:03:33;;;;;;;1999.90;999.90;;;14.20;99.90;;;;;;6737909;88;20188;-81
2022/10/30 22:13:33;;;;;;;1999.90;999.90;;;14.00;99.90;;;;;;6756362;88;20596;-82
2022/10/30 22:23:35;;;;;;;1999.90;999.90;;;13.90;99.90;;;;;;6747986;88;20236;-82
2022/10/30 22:33:36;;;;;;;1999.90;999.90;;;13.80;99.90;;;;;;6751141;88;20220;-81
2022/10/30 22:43:37;;;;;;;1999.90;999.90;;;13.80;99.90;;;;;;6750821;88;20286;-82
2022/10/30 22:53:38;;;;;;;1999.90;999.90;;;13.70;99.90;;;;;;6749225;88;20195;-82
2022/10/30 23:03:39;;;;;;;1999.90;999.90;;;13.70;99.90;;;;;;6752645;88;20227;-82
2022/10/30 23:13:40;;;;;;;1999.90;999.90;;;13.60;99.90;;;;;;6753210;88;20181;-81
2022/10/30 23:23:42;;;;;;;1999.90;999.90;;;13.50;99.90;;;;;;6752257;88;20223;-82
2022/10/30 23:33:48;;;;;;;1999.90;999.90;;;13.30;99.90;;;;;;6752491;88;20658;-81
2022/10/30 23:43:59;;;;;;;1999.90;999.90;;;13.20;99.90;;;;;;6731590;88;20636;-82
2022/10/30 23:53:59;;;;;;;1999.90;999.90;;;13.10;99.90;;;;;;6734521;88;20642;-81
